sensor_id;sensor_type;location;lat;lon;timestamp;P1;durP1;ratioP1;P2;durP2;ratioP2
28447;SDS011;15675;52.870;-1.416;2024-03-29T00:01:34;19.20;;;18.30;;
28447;SDS011;15675;52.870;-1.416;2024-03-29T00:04:00;18.05;;;17.25;;
28447;SDS011;15675;52.870;-1.416;2024-03-29T00:06:25;18.90;;;17.90;;
28447;SDS011;15675;52.870;-1.416;2024-03-29T00:08:51;20.15;;;19.08;;
28447;SDS011;15675;52.870;-1.416;2024-03-29T00:11:16;19.45;;;18.42;;
28447;SDS011;15675;52.870;-1.416;2024-03-29T00:13:42;20.15;;;19.25;;
28447;SDS011;15675;52.870;-1.416;2024-03-29T00:16:07;20.80;;;19.60;;
28447;SDS011;15675;52.870;-1.416;2024-03-29T00:18:33;19.65;;;18.67;;
28447;SDS011;15675;52.870;-1.416;2024-03-29T00:20:58;20.65;;;19.20;;
28447;SDS011;15675;52.870;-1.416;2024-03-29T00:23:24;19.30;;;18.40;;
28447;SDS011;15675;52.870;-1.416;2024-03-29T00:25:49;18.92;;;17.65;;
28447;SDS011;15675;52.870;-1.416;2024-03-29T00:28:15;17.92;;;16.92;;
28447;SDS011;15675;52.870;-1.416;2024-03-29T00:30:40;18.90;;;17.08;;
28447;SDS011;15675;52.870;-1.416;2024-03-29T00:33:06;18.95;;;18.05;;
28447;SDS011;15675;52.870;-1.416;2024-03-29T00:35:31;18.90;;;18.00;;
28447;SDS011;15675;52.870;-1.416;2024-03-29T00:37:57;19.95;;;18.65;;
28447;SDS011;15675;52.870;-1.416;2024-03-29T00:40:22;21.23;;;20.23;;
28447;SDS011;15675;52.870;-1.416;2024-03-29T00:42:48;21.65;;;20.55;;
28447;SDS011;15675;52.870;-1.416;2024-03-29T00:45:13;22.40;;;21.25;;
28447;SDS011;15675;52.870;-1.416;2024-03-29T00:47:39;21.45;;;20.45;;
28447;SDS011;15675;52.870;-1.416;2024-03-29T00:50:04;21.15;;;20.15;;
28447;SDS011;15675;52.870;-1.416;2024-03-29T00:52:30;21.67;;;20.27;;
28447;SDS011;15675;52.870;-1.416;2024-03-29T00:54:55;24.15;;;22.50;;
28447;SDS011;15675;52.870;-1.416;2024-03-29T00:57:21;22.90;;;21.70;;
28447;SDS011;15675;52.870;-1.416;2024-03-29T00:59:47;22.80;;;21.55;;
28447;SDS011;15675;52.870;-1.416;2024-03-29T01:02:12;22.45;;;21.35;;
28447;SDS011;15675;52.870;-1.416;2024-03-29T01:04:38;22.45;;;20.95;;
28447;SDS011;15675;52.870;-1.416;2024-03-29T01:07:05;23.60;;;22.40;;
28447;SDS011;15675;52.870;-1.416;2024-03-29T01:09:30;23.30;;;21.67;;
28447;SDS011;15675;52.870;-1.416;2024-03-29T01:11:56;23.17;;;21.73;;
28447;SDS011;15675;52.870;-1.416;2024-03-29T01:14:22;21.80;;;20.55;;
28447;SDS011;15675;52.870;-1.416;2024-03-29T01:16:47;22.33;;;21.00;;
28447;SDS011;15675;52.870;-1.416;2024-03-29T01:19:13;22.83;;;21.52;;
28447;SDS011;15675;52.870;-1.416;2024-03-29T01:21:38;21.95;;;20.65;;
28447;SDS011;15675;52.870;-1.416;2024-03-29T01:24:04;22.42;;;21.27;;
28447;SDS011;15675;52.870;-1.416;2024-03-29T01:26:30;23.30;;;22.00;;
28447;SDS011;15675;52.870;-1.416;2024-03-29T01:28:56;24.60;;;23.13;;
28447;SDS011;15675;52.870;-1.416;2024-03-29T01:31:22;24.40;;;22.98;;
28447;SDS011;15675;52.870;-1.416;2024-03-29T01:33:48;21.33;;;20.33;;
28447;SDS011;15675;52.870;-1.416;2024-03-29T01:36:14;23.52;;;22.15;;
28447;SDS011;15675;52.870;-1.416;2024-03-29T01:38:40;25.58;;;24.33;;
28447;SDS011;15675;52.870;-1.416;2024-03-29T01:41:05;25.20;;;23.63;;
28447;SDS011;15675;52.870;-1.416;2024-03-29T01:43:32;23.75;;;22.55;;
28447;SDS011;15675;52.870;-1.416;2024-03-29T01:45:57;23.25;;;22.15;;
28447;SDS011;15675;52.870;-1.416;2024-03-29T01:48:24;22.25;;;21.20;;
28447;SDS011;15675;52.870;-1.416;2024-03-29T01:50:50;22.98;;;21.88;;
28447;SDS011;15675;52.870;-1.416;2024-03-29T01:53:18;25.30;;;23.70;;
28447;SDS011;15675;52.870;-1.416;2024-03-29T01:55:45;26.65;;;24.98;;
28447;SDS011;15675;52.870;-1.416;2024-03-29T01:58:11;26.77;;;25.23;;
28447;SDS011;15675;52.870;-1.416;2024-03-29T02:00:41;24.77;;;23.58;;
28447;SDS011;15675;52.870;-1.416;2024-03-29T02:03:09;26.83;;;25.48;;
28447;SDS011;15675;52.870;-1.416;2024-03-29T02:05:38;26.80;;;25.52;;
28447;SDS011;15675;52.870;-1.416;2024-03-29T02:08:05;25.17;;;23.95;;
28447;SDS011;15675;52.870;-1.416;2024-03-29T02:10:32;24.58;;;23.38;;
28447;SDS011;15675;52.870;-1.416;2024-03-29T02:12:59;25.45;;;24.15;;
28447;SDS011;15675;52.870;-1.416;2024-03-29T02:15:25;28.48;;;27.10;;
28447;SDS011;15675;52.870;-1.416;2024-03-29T02:17:50;27.40;;;25.88;;
28447;SDS011;15675;52.870;-1.416;2024-03-29T02:20:16;25.25;;;24.00;;
28447;SDS011;15675;52.870;-1.416;2024-03-29T02:22:45;26.23;;;24.98;;
28447;SDS011;15675;52.870;-1.416;2024-03-29T02:25:17;25.67;;;23.73;;
28447;SDS011;15675;52.870;-1.416;2024-03-29T02:27:43;23.52;;;22.20;;
28447;SDS011;15675;52.870;-1.416;2024-03-29T02:30:13;25.23;;;24.02;;
28447;SDS011;15675;52.870;-1.416;2024-03-29T02:32:42;23.85;;;22.65;;
28447;SDS011;15675;52.870;-1.416;2024-03-29T02:35:07;23.17;;;22.05;;
28447;SDS011;15675;52.870;-1.416;2024-03-29T02:37:36;23.27;;;21.80;;
28447;SDS011;15675;52.870;-1.416;2024-03-29T02:40:02;22.95;;;21.85;;
28447;SDS011;15675;52.870;-1.416;2024-03-29T02:42:29;23.20;;;22.10;;
28447;SDS011;15675;52.870;-1.416;2024-03-29T02:44:54;24.45;;;22.80;;
28447;SDS011;15675;52.870;-1.416;2024-03-29T02:47:21;23.88;;;22.35;;
28447;SDS011;15675;52.870;-1.416;2024-03-29T02:49:46;23.63;;;22.45;;
28447;SDS011;15675;52.870;-1.416;2024-03-29T02:52:12;24.85;;;23.55;;
28447;SDS011;15675;52.870;-1.416;2024-03-29T02:54:37;23.00;;;21.90;;
28447;SDS011;15675;52.870;-1.416;2024-03-29T02:57:03;23.70;;;22.50;;
28447;SDS011;15675;52.870;-1.416;2024-03-29T02:59:29;23.50;;;22.38;;
28447;SDS011;15675;52.870;-1.416;2024-03-29T03:01:54;24.40;;;22.60;;
28447;SDS011;15675;52.870;-1.416;2024-03-29T03:04:20;25.02;;;23.45;;
28447;SDS011;15675;52.870;-1.416;2024-03-29T03:06:45;24.75;;;23.55;;
28447;SDS011;15675;52.870;-1.416;2024-03-29T03:09:11;26.75;;;25.45;;
28447;SDS011;15675;52.870;-1.416;2024-03-29T03:11:55;24.20;;;22.88;;
28447;SDS011;15675;52.870;-1.416;2024-03-29T03:14:20;25.63;;;24.25;;
28447;SDS011;15675;52.870;-1.416;2024-03-29T03:16:45;25.42;;;24.08;;
28447;SDS011;15675;52.870;-1.416;2024-03-29T03:19:11;24.58;;;23.33;;
28447;SDS011;15675;52.870;-1.416;2024-03-29T03:21:36;27.75;;;26.30;;
28447;SDS011;15675;52.870;-1.416;2024-03-29T03:24:02;27.48;;;25.92;;
28447;SDS011;15675;52.870;-1.416;2024-03-29T03:26:29;28.30;;;26.60;;
28447;SDS011;15675;52.870;-1.416;2024-03-29T03:28:55;27.67;;;25.38;;
28447;SDS011;15675;52.870;-1.416;2024-03-29T03:31:20;27.58;;;25.55;;
28447;SDS011;15675;52.870;-1.416;2024-03-29T03:33:46;28.02;;;26.13;;
28447;SDS011;15675;52.870;-1.416;2024-03-29T03:36:11;26.15;;;24.20;;
28447;SDS011;15675;52.870;-1.416;2024-03-29T03:38:37;28.02;;;26.23;;
28447;SDS011;15675;52.870;-1.416;2024-03-29T03:41:03;24.30;;;22.90;;
28447;SDS011;15675;52.870;-1.416;2024-03-29T03:43:29;26.38;;;24.63;;
28447;SDS011;15675;52.870;-1.416;2024-03-29T03:45:59;24.90;;;23.48;;
28447;SDS011;15675;52.870;-1.416;2024-03-29T03:48:25;24.90;;;23.38;;
28447;SDS011;15675;52.870;-1.416;2024-03-29T03:50:51;24.02;;;22.60;;
28447;SDS011;15675;52.870;-1.416;2024-03-29T03:53:16;24.98;;;23.40;;
28447;SDS011;15675;52.870;-1.416;2024-03-29T03:55:42;25.40;;;23.98;;
28447;SDS011;15675;52.870;-1.416;2024-03-29T03:58:07;25.85;;;23.77;;
28447;SDS011;15675;52.870;-1.416;2024-03-29T04:00:33;27.02;;;25.08;;
28447;SDS011;15675;52.870;-1.416;2024-03-29T04:02:59;26.10;;;24.63;;
28447;SDS011;15675;52.870;-1.416;2024-03-29T04:05:24;29.65;;;27.23;;
28447;SDS011;15675;52.870;-1.416;2024-03-29T04:07:51;27.92;;;26.05;;
28447;SDS011;15675;52.870;-1.416;2024-03-29T04:10:16;28.55;;;26.80;;
28447;SDS011;15675;52.870;-1.416;2024-03-29T04:12:42;27.88;;;25.95;;
28447;SDS011;15675;52.870;-1.416;2024-03-29T04:15:08;26.17;;;24.77;;
28447;SDS011;15675;52.870;-1.416;2024-03-29T04:17:34;27.55;;;26.15;;
28447;SDS011;15675;52.870;-1.416;2024-03-29T04:20:00;27.27;;;25.65;;
28447;SDS011;15675;52.870;-1.416;2024-03-29T04:22:28;26.73;;;25.27;;
28447;SDS011;15675;52.870;-1.416;2024-03-29T04:24:54;28.02;;;26.45;;
28447;SDS011;15675;52.870;-1.416;2024-03-29T04:27:20;27.50;;;25.60;;
28447;SDS011;15675;52.870;-1.416;2024-03-29T04:29:45;28.83;;;27.15;;
28447;SDS011;15675;52.870;-1.416;2024-03-29T04:32:10;27.95;;;26.42;;
28447;SDS011;15675;52.870;-1.416;2024-03-29T04:34:36;27.17;;;25.33;;
28447;SDS011;15675;52.870;-1.416;2024-03-29T04:37:02;27.50;;;25.33;;
28447;SDS011;15675;52.870;-1.416;2024-03-29T04:39:27;27.70;;;25.92;;
28447;SDS011;15675;52.870;-1.416;2024-03-29T04:41:53;26.88;;;25.05;;
28447;SDS011;15675;52.870;-1.416;2024-03-29T04:44:27;26.98;;;25.35;;
28447;SDS011;15675;52.870;-1.416;2024-03-29T04:46:53;28.48;;;26.55;;
28447;SDS011;15675;52.870;-1.416;2024-03-29T04:49:19;27.63;;;25.33;;
28447;SDS011;15675;52.870;-1.416;2024-03-29T04:51:56;26.05;;;24.55;;
28447;SDS011;15675;52.870;-1.416;2024-03-29T04:54:22;27.70;;;26.05;;
28447;SDS011;15675;52.870;-1.416;2024-03-29T04:56:48;26.73;;;24.95;;
28447;SDS011;15675;52.870;-1.416;2024-03-29T04:59:13;27.27;;;25.67;;
28447;SDS011;15675;52.870;-1.416;2024-03-29T05:01:42;25.40;;;24.00;;
28447;SDS011;15675;52.870;-1.416;2024-03-29T05:04:09;26.70;;;24.85;;
28447;SDS011;15675;52.870;-1.416;2024-03-29T05:06:35;27.00;;;25.42;;
28447;SDS011;15675;52.870;-1.416;2024-03-29T05:09:00;26.35;;;24.38;;
28447;SDS011;15675;52.870;-1.416;2024-03-29T05:11:26;27.10;;;24.65;;
28447;SDS011;15675;52.870;-1.416;2024-03-29T05:13:51;25.63;;;24.17;;
28447;SDS011;15675;52.870;-1.416;2024-03-29T05:16:17;25.67;;;23.92;;
28447;SDS011;15675;52.870;-1.416;2024-03-29T05:18:43;25.05;;;23.58;;
28447;SDS011;15675;52.870;-1.416;2024-03-29T05:21:08;25.42;;;23.77;;
28447;SDS011;15675;52.870;-1.416;2024-03-29T05:23:34;25.08;;;22.90;;
28447;SDS011;15675;52.870;-1.416;2024-03-29T05:26:00;26.00;;;23.90;;
28447;SDS011;15675;52.870;-1.416;2024-03-29T05:28:25;26.13;;;23.85;;
28447;SDS011;15675;52.870;-1.416;2024-03-29T05:30:52;26.08;;;23.88;;
28447;SDS011;15675;52.870;-1.416;2024-03-29T05:33:17;25.33;;;24.10;;
28447;SDS011;15675;52.870;-1.416;2024-03-29T05:35:43;26.67;;;24.65;;
28447;SDS011;15675;52.870;-1.416;2024-03-29T05:38:08;24.25;;;23.10;;
28447;SDS011;15675;52.870;-1.416;2024-03-29T05:40:34;25.08;;;23.77;;
28447;SDS011;15675;52.870;-1.416;2024-03-29T05:42:59;24.17;;;22.90;;
28447;SDS011;15675;52.870;-1.416;2024-03-29T05:45:26;23.90;;;22.60;;
28447;SDS011;15675;52.870;-1.416;2024-03-29T05:47:56;24.88;;;23.35;;
28447;SDS011;15675;52.870;-1.416;2024-03-29T05:50:23;24.30;;;23.00;;
28447;SDS011;15675;52.870;-1.416;2024-03-29T05:52:50;23.67;;;22.30;;
28447;SDS011;15675;52.870;-1.416;2024-03-29T05:55:19;24.42;;;23.13;;
28447;SDS011;15675;52.870;-1.416;2024-03-29T05:57:44;24.40;;;22.75;;
28447;SDS011;15675;52.870;-1.416;2024-03-29T06:00:11;23.83;;;22.40;;
28447;SDS011;15675;52.870;-1.416;2024-03-29T06:02:41;24.38;;;22.52;;
28447;SDS011;15675;52.870;-1.416;2024-03-29T06:05:08;23.67;;;21.75;;
28447;SDS011;15675;52.870;-1.416;2024-03-29T06:07:34;22.02;;;20.90;;
28447;SDS011;15675;52.870;-1.416;2024-03-29T06:09:59;22.30;;;20.40;;
28447;SDS011;15675;52.870;-1.416;2024-03-29T06:12:29;21.38;;;20.15;;
28447;SDS011;15675;52.870;-1.416;2024-03-29T06:14:54;20.63;;;18.70;;
28447;SDS011;15675;52.870;-1.416;2024-03-29T06:17:38;19.70;;;18.48;;
28447;SDS011;15675;52.870;-1.416;2024-03-29T06:20:04;19.98;;;18.38;;
28447;SDS011;15675;52.870;-1.416;2024-03-29T06:22:30;17.25;;;16.35;;
28447;SDS011;15675;52.870;-1.416;2024-03-29T06:24:56;17.88;;;16.75;;
28447;SDS011;15675;52.870;-1.416;2024-03-29T06:27:33;17.85;;;16.85;;
28447;SDS011;15675;52.870;-1.416;2024-03-29T06:29:59;17.95;;;16.52;;
28447;SDS011;15675;52.870;-1.416;2024-03-29T06:32:24;17.38;;;16.55;;
28447;SDS011;15675;52.870;-1.416;2024-03-29T06:34:50;15.48;;;14.68;;
28447;SDS011;15675;52.870;-1.416;2024-03-29T06:37:15;17.67;;;16.00;;
28447;SDS011;15675;52.870;-1.416;2024-03-29T06:39:41;16.98;;;15.75;;
28447;SDS011;15675;52.870;-1.416;2024-03-29T06:42:08;18.17;;;16.45;;
28447;SDS011;15675;52.870;-1.416;2024-03-29T06:44:35;16.13;;;15.02;;
28447;SDS011;15675;52.870;-1.416;2024-03-29T06:47:01;18.23;;;16.35;;
28447;SDS011;15675;52.870;-1.416;2024-03-29T06:49:27;16.98;;;15.75;;
28447;SDS011;15675;52.870;-1.416;2024-03-29T06:51:53;15.73;;;14.77;;
28447;SDS011;15675;52.870;-1.416;2024-03-29T06:54:24;15.63;;;14.73;;
28447;SDS011;15675;52.870;-1.416;2024-03-29T06:56:52;16.02;;;14.40;;
28447;SDS011;15675;52.870;-1.416;2024-03-29T06:59:20;15.27;;;14.30;;
28447;SDS011;15675;52.870;-1.416;2024-03-29T07:01:46;16.95;;;15.38;;
28447;SDS011;15675;52.870;-1.416;2024-03-29T07:04:21;17.58;;;15.90;;
28447;SDS011;15675;52.870;-1.416;2024-03-29T07:06:50;16.58;;;15.20;;
28447;SDS011;15675;52.870;-1.416;2024-03-29T07:09:19;15.85;;;14.50;;
28447;SDS011;15675;52.870;-1.416;2024-03-29T07:11:46;15.88;;;14.90;;
28447;SDS011;15675;52.870;-1.416;2024-03-29T07:14:14;15.95;;;14.82;;
28447;SDS011;15675;52.870;-1.416;2024-03-29T07:16:40;14.63;;;13.82;;
28447;SDS011;15675;52.870;-1.416;2024-03-29T07:19:06;15.43;;;14.43;;
28447;SDS011;15675;52.870;-1.416;2024-03-29T07:21:32;15.23;;;14.38;;
28447;SDS011;15675;52.870;-1.416;2024-03-29T07:23:57;14.25;;;13.40;;
28447;SDS011;15675;52.870;-1.416;2024-03-29T07:26:23;14.75;;;13.57;;
28447;SDS011;15675;52.870;-1.416;2024-03-29T07:28:48;19.05;;;14.10;;
28447;SDS011;15675;52.870;-1.416;2024-03-29T07:31:14;14.80;;;13.32;;
28447;SDS011;15675;52.870;-1.416;2024-03-29T07:33:40;13.80;;;12.45;;
28447;SDS011;15675;52.870;-1.416;2024-03-29T07:36:05;14.77;;;13.85;;
28447;SDS011;15675;52.870;-1.416;2024-03-29T07:38:31;14.30;;;13.02;;
28447;SDS011;15675;52.870;-1.416;2024-03-29T07:40:56;12.27;;;11.65;;
28447;SDS011;15675;52.870;-1.416;2024-03-29T07:43:22;13.38;;;12.27;;
28447;SDS011;15675;52.870;-1.416;2024-03-29T07:45:48;13.80;;;12.57;;
28447;SDS011;15675;52.870;-1.416;2024-03-29T07:48:14;14.55;;;13.25;;
28447;SDS011;15675;52.870;-1.416;2024-03-29T07:50:45;13.57;;;12.77;;
28447;SDS011;15675;52.870;-1.416;2024-03-29T07:53:11;13.13;;;12.32;;
28447;SDS011;15675;52.870;-1.416;2024-03-29T07:55:38;13.77;;;12.65;;
28447;SDS011;15675;52.870;-1.416;2024-03-29T07:58:05;12.48;;;11.40;;
28447;SDS011;15675;52.870;-1.416;2024-03-29T08:00:30;11.68;;;10.68;;
28447;SDS011;15675;52.870;-1.416;2024-03-29T08:02:57;11.25;;;10.30;;
28447;SDS011;15675;52.870;-1.416;2024-03-29T08:05:23;12.88;;;11.18;;
28447;SDS011;15675;52.870;-1.416;2024-03-29T08:07:49;12.52;;;10.43;;
28447;SDS011;15675;52.870;-1.416;2024-03-29T08:10:15;20.67;;;12.13;;
28447;SDS011;15675;52.870;-1.416;2024-03-29T08:12:40;11.02;;;10.18;;
28447;SDS011;15675;52.870;-1.416;2024-03-29T08:15:06;14.98;;;10.75;;
28447;SDS011;15675;52.870;-1.416;2024-03-29T08:17:33;13.02;;;11.82;;
28447;SDS011;15675;52.870;-1.416;2024-03-29T08:19:58;13.32;;;12.43;;
28447;SDS011;15675;52.870;-1.416;2024-03-29T08:22:24;13.32;;;12.25;;
28447;SDS011;15675;52.870;-1.416;2024-03-29T08:24:49;10.25;;;9.23;;
28447;SDS011;15675;52.870;-1.416;2024-03-29T08:27:15;11.02;;;10.23;;
28447;SDS011;15675;52.870;-1.416;2024-03-29T08:29:42;10.13;;;9.48;;
28447;SDS011;15675;52.870;-1.416;2024-03-29T08:32:07;9.98;;;9.20;;
28447;SDS011;15675;52.870;-1.416;2024-03-29T08:34:36;10.43;;;9.60;;
28447;SDS011;15675;52.870;-1.416;2024-03-29T08:37:02;10.15;;;9.25;;
28447;SDS011;15675;52.870;-1.416;2024-03-29T08:39:31;11.13;;;10.32;;
28447;SDS011;15675;52.870;-1.416;2024-03-29T08:41:57;12.60;;;10.40;;
28447;SDS011;15675;52.870;-1.416;2024-03-29T08:44:24;10.68;;;9.77;;
28447;SDS011;15675;52.870;-1.416;2024-03-29T08:46:50;11.52;;;10.02;;
28447;SDS011;15675;52.870;-1.416;2024-03-29T08:49:16;11.05;;;10.05;;
28447;SDS011;15675;52.870;-1.416;2024-03-29T08:51:41;11.75;;;9.65;;
28447;SDS011;15675;52.870;-1.416;2024-03-29T08:54:07;10.98;;;10.23;;
28447;SDS011;15675;52.870;-1.416;2024-03-29T08:56:32;11.13;;;10.32;;
28447;SDS011;15675;52.870;-1.416;2024-03-29T08:59:02;10.73;;;9.85;;
28447;SDS011;15675;52.870;-1.416;2024-03-29T09:01:33;13.13;;;11.82;;
28447;SDS011;15675;52.870;-1.416;2024-03-29T09:04:01;10.55;;;9.75;;
28447;SDS011;15675;52.870;-1.416;2024-03-29T09:06:26;13.15;;;10.05;;
28447;SDS011;15675;52.870;-1.416;2024-03-29T09:08:52;11.98;;;9.85;;
28447;SDS011;15675;52.870;-1.416;2024-03-29T09:11:18;12.55;;;10.13;;
28447;SDS011;15675;52.870;-1.416;2024-03-29T09:13:43;13.07;;;11.90;;
28447;SDS011;15675;52.870;-1.416;2024-03-29T09:16:08;16.30;;;10.13;;
28447;SDS011;15675;52.870;-1.416;2024-03-29T09:18:35;9.85;;;9.23;;
28447;SDS011;15675;52.870;-1.416;2024-03-29T09:21:00;11.50;;;10.35;;
28447;SDS011;15675;52.870;-1.416;2024-03-29T09:23:26;14.70;;;9.40;;
28447;SDS011;15675;52.870;-1.416;2024-03-29T09:25:56;12.57;;;9.73;;
28447;SDS011;15675;52.870;-1.416;2024-03-29T09:28:25;12.60;;;9.38;;
28447;SDS011;15675;52.870;-1.416;2024-03-29T09:30:57;13.55;;;9.88;;
28447;SDS011;15675;52.870;-1.416;2024-03-29T09:33:23;11.93;;;9.82;;
28447;SDS011;15675;52.870;-1.416;2024-03-29T09:35:48;22.45;;;10.45;;
28447;SDS011;15675;52.870;-1.416;2024-03-29T09:38:14;18.00;;;8.93;;
28447;SDS011;15675;52.870;-1.416;2024-03-29T09:40:39;16.45;;;8.93;;
28447;SDS011;15675;52.870;-1.416;2024-03-29T09:43:05;11.10;;;9.65;;
28447;SDS011;15675;52.870;-1.416;2024-03-29T09:45:34;10.70;;;9.18;;
28447;SDS011;15675;52.870;-1.416;2024-03-29T09:48:05;9.85;;;8.75;;
28447;SDS011;15675;52.870;-1.416;2024-03-29T09:50:32;10.73;;;9.50;;
28447;SDS011;15675;52.870;-1.416;2024-03-29T09:53:00;20.10;;;11.23;;
28447;SDS011;15675;52.870;-1.416;2024-03-29T09:55:25;13.68;;;9.93;;
28447;SDS011;15675;52.870;-1.416;2024-03-29T09:57:53;11.55;;;10.50;;
28447;SDS011;15675;52.870;-1.416;2024-03-29T10:00:19;10.85;;;9.77;;
28447;SDS011;15675;52.870;-1.416;2024-03-29T10:02:44;15.60;;;10.02;;
28447;SDS011;15675;52.870;-1.416;2024-03-29T10:05:11;12.20;;;10.68;;
28447;SDS011;15675;52.870;-1.416;2024-03-29T10:07:39;12.27;;;10.52;;
28447;SDS011;15675;52.870;-1.416;2024-03-29T10:10:05;12.98;;;11.70;;
28447;SDS011;15675;52.870;-1.416;2024-03-29T10:12:31;13.55;;;10.73;;
28447;SDS011;15675;52.870;-1.416;2024-03-29T10:14:57;11.80;;;10.82;;
28447;SDS011;15675;52.870;-1.416;2024-03-29T10:17:33;15.82;;;10.73;;
28447;SDS011;15675;52.870;-1.416;2024-03-29T10:20:00;10.82;;;9.95;;
28447;SDS011;15675;52.870;-1.416;2024-03-29T10:22:30;11.00;;;10.02;;
28447;SDS011;15675;52.870;-1.416;2024-03-29T10:25:01;11.82;;;10.48;;
28447;SDS011;15675;52.870;-1.416;2024-03-29T10:27:27;10.00;;;9.20;;
28447;SDS011;15675;52.870;-1.416;2024-03-29T10:29:52;10.25;;;9.07;;
28447;SDS011;15675;52.870;-1.416;2024-03-29T10:32:18;9.93;;;9.23;;
28447;SDS011;15675;52.870;-1.416;2024-03-29T10:34:44;9.80;;;9.27;;
28447;SDS011;15675;52.870;-1.416;2024-03-29T10:37:09;10.55;;;9.75;;
28447;SDS011;15675;52.870;-1.416;2024-03-29T10:39:35;10.73;;;9.82;;
28447;SDS011;15675;52.870;-1.416;2024-03-29T10:42:01;10.40;;;9.32;;
28447;SDS011;15675;52.870;-1.416;2024-03-29T10:44:27;9.38;;;8.55;;
28447;SDS011;15675;52.870;-1.416;2024-03-29T10:46:55;9.80;;;8.95;;
28447;SDS011;15675;52.870;-1.416;2024-03-29T10:49:23;10.82;;;9.77;;
28447;SDS011;15675;52.870;-1.416;2024-03-29T10:51:49;9.45;;;8.95;;
28447;SDS011;15675;52.870;-1.416;2024-03-29T10:54:16;11.65;;;10.90;;
28447;SDS011;15675;52.870;-1.416;2024-03-29T10:56:42;9.27;;;8.52;;
28447;SDS011;15675;52.870;-1.416;2024-03-29T11:01:56;10.27;;;8.90;;
28447;SDS011;15675;52.870;-1.416;2024-03-29T11:04:27;7.82;;;7.00;;
28447;SDS011;15675;52.870;-1.416;2024-03-29T11:09:27;6.68;;;6.15;;
28447;SDS011;15675;52.870;-1.416;2024-03-29T11:11:56;7.18;;;6.55;;
28447;SDS011;15675;52.870;-1.416;2024-03-29T11:14:38;6.95;;;6.28;;
28447;SDS011;15675;52.870;-1.416;2024-03-29T11:17:10;6.70;;;6.10;;
28447;SDS011;15675;52.870;-1.416;2024-03-29T11:19:39;6.22;;;5.82;;
28447;SDS011;15675;52.870;-1.416;2024-03-29T11:22:05;6.20;;;4.90;;
28447;SDS011;15675;52.870;-1.416;2024-03-29T11:24:31;6.93;;;4.78;;
28447;SDS011;15675;52.870;-1.416;2024-03-29T11:26:57;10.60;;;4.68;;
28447;SDS011;15675;52.870;-1.416;2024-03-29T11:29:22;4.90;;;4.60;;
28447;SDS011;15675;52.870;-1.416;2024-03-29T11:31:57;12.45;;;5.50;;
28447;SDS011;15675;52.870;-1.416;2024-03-29T11:34:24;7.22;;;4.55;;
28447;SDS011;15675;52.870;-1.416;2024-03-29T11:36:49;4.93;;;4.18;;
28447;SDS011;15675;52.870;-1.416;2024-03-29T11:39:22;4.03;;;3.83;;
28447;SDS011;15675;52.870;-1.416;2024-03-29T11:41:49;4.10;;;3.78;;
28447;SDS011;15675;52.870;-1.416;2024-03-29T11:44:17;7.03;;;3.80;;
28447;SDS011;15675;52.870;-1.416;2024-03-29T11:46:43;7.30;;;3.72;;
28447;SDS011;15675;52.870;-1.416;2024-03-29T11:49:12;4.57;;;3.45;;
28447;SDS011;15675;52.870;-1.416;2024-03-29T11:51:37;5.53;;;4.15;;
28447;SDS011;15675;52.870;-1.416;2024-03-29T11:54:03;8.15;;;3.97;;
28447;SDS011;15675;52.870;-1.416;2024-03-29T11:56:28;7.28;;;3.70;;
28447;SDS011;15675;52.870;-1.416;2024-03-29T11:58:54;8.73;;;4.35;;
28447;SDS011;15675;52.870;-1.416;2024-03-29T12:01:25;4.22;;;3.92;;
28447;SDS011;15675;52.870;-1.416;2024-03-29T12:03:51;5.07;;;3.55;;
28447;SDS011;15675;52.870;-1.416;2024-03-29T12:06:17;3.80;;;3.20;;
28447;SDS011;15675;52.870;-1.416;2024-03-29T12:08:44;4.00;;;3.70;;
28447;SDS011;15675;52.870;-1.416;2024-03-29T12:11:09;4.07;;;3.65;;
28447;SDS011;15675;52.870;-1.416;2024-03-29T12:13:35;4.72;;;4.30;;
28447;SDS011;15675;52.870;-1.416;2024-03-29T12:16:01;3.25;;;3.00;;
28447;SDS011;15675;52.870;-1.416;2024-03-29T12:18:28;6.05;;;3.60;;
28447;SDS011;15675;52.870;-1.416;2024-03-29T12:20:57;4.00;;;3.25;;
28447;SDS011;15675;52.870;-1.416;2024-03-29T12:23:23;4.18;;;3.13;;
28447;SDS011;15675;52.870;-1.416;2024-03-29T12:25:49;6.30;;;3.97;;
28447;SDS011;15675;52.870;-1.416;2024-03-29T12:28:16;5.93;;;3.47;;
28447;SDS011;15675;52.870;-1.416;2024-03-29T12:30:43;9.05;;;4.00;;
28447;SDS011;15675;52.870;-1.416;2024-03-29T12:33:13;4.90;;;3.85;;
28447;SDS011;15675;52.870;-1.416;2024-03-29T12:35:43;3.85;;;3.45;;
28447;SDS011;15675;52.870;-1.416;2024-03-29T12:38:11;4.10;;;3.83;;
28447;SDS011;15675;52.870;-1.416;2024-03-29T12:40:38;5.68;;;3.63;;
28447;SDS011;15675;52.870;-1.416;2024-03-29T12:43:06;3.35;;;3.15;;
28447;SDS011;15675;52.870;-1.416;2024-03-29T12:45:33;5.95;;;3.20;;
28447;SDS011;15675;52.870;-1.416;2024-03-29T12:48:00;4.25;;;3.47;;
28447;SDS011;15675;52.870;-1.416;2024-03-29T12:50:26;3.95;;;3.65;;
28447;SDS011;15675;52.870;-1.416;2024-03-29T12:52:55;4.00;;;3.60;;
28447;SDS011;15675;52.870;-1.416;2024-03-29T12:55:23;3.95;;;3.72;;
28447;SDS011;15675;52.870;-1.416;2024-03-29T12:57:49;3.88;;;3.58;;
28447;SDS011;15675;52.870;-1.416;2024-03-29T13:00:19;4.40;;;3.40;;
28447;SDS011;15675;52.870;-1.416;2024-03-29T13:02:48;3.95;;;3.60;;
28447;SDS011;15675;52.870;-1.416;2024-03-29T13:05:14;3.38;;;3.17;;
28447;SDS011;15675;52.870;-1.416;2024-03-29T13:07:40;4.03;;;3.70;;
28447;SDS011;15675;52.870;-1.416;2024-03-29T13:10:06;3.97;;;3.65;;
28447;SDS011;15675;52.870;-1.416;2024-03-29T13:12:38;3.67;;;3.38;;
28447;SDS011;15675;52.870;-1.416;2024-03-29T13:15:14;3.60;;;3.30;;
28447;SDS011;15675;52.870;-1.416;2024-03-29T13:17:40;3.78;;;3.53;;
28447;SDS011;15675;52.870;-1.416;2024-03-29T13:20:06;4.88;;;3.72;;
28447;SDS011;15675;52.870;-1.416;2024-03-29T13:22:32;5.40;;;3.97;;
28447;SDS011;15675;52.870;-1.416;2024-03-29T13:24:57;3.92;;;3.42;;
28447;SDS011;15675;52.870;-1.416;2024-03-29T13:27:23;4.22;;;3.67;;
28447;SDS011;15675;52.870;-1.416;2024-03-29T13:29:48;3.70;;;3.40;;
28447;SDS011;15675;52.870;-1.416;2024-03-29T13:32:14;7.30;;;3.88;;
28447;SDS011;15675;52.870;-1.416;2024-03-29T13:34:40;4.07;;;3.70;;
28447;SDS011;15675;52.870;-1.416;2024-03-29T13:37:05;10.75;;;4.47;;
28447;SDS011;15675;52.870;-1.416;2024-03-29T13:39:31;3.78;;;3.47;;
28447;SDS011;15675;52.870;-1.416;2024-03-29T13:41:56;3.17;;;2.97;;
28447;SDS011;15675;52.870;-1.416;2024-03-29T13:44:22;3.97;;;3.20;;
28447;SDS011;15675;52.870;-1.416;2024-03-29T13:46:47;5.25;;;3.50;;
28447;SDS011;15675;52.870;-1.416;2024-03-29T13:49:13;4.60;;;3.40;;
28447;SDS011;15675;52.870;-1.416;2024-03-29T13:51:39;6.10;;;3.80;;
28447;SDS011;15675;52.870;-1.416;2024-03-29T13:54:04;4.80;;;3.53;;
28447;SDS011;15675;52.870;-1.416;2024-03-29T13:56:30;5.47;;;3.40;;
28447;SDS011;15675;52.870;-1.416;2024-03-29T13:58:56;5.47;;;3.72;;
28447;SDS011;15675;52.870;-1.416;2024-03-29T14:01:21;9.00;;;3.50;;
28447;SDS011;15675;52.870;-1.416;2024-03-29T14:03:50;5.30;;;3.60;;
28447;SDS011;15675;52.870;-1.416;2024-03-29T14:06:18;8.48;;;4.05;;
28447;SDS011;15675;52.870;-1.416;2024-03-29T14:08:43;6.60;;;4.07;;
28447;SDS011;15675;52.870;-1.416;2024-03-29T14:11:09;5.03;;;4.00;;
28447;SDS011;15675;52.870;-1.416;2024-03-29T14:13:36;6.55;;;3.80;;
28447;SDS011;15675;52.870;-1.416;2024-03-29T14:16:02;5.93;;;3.88;;
28447;SDS011;15675;52.870;-1.416;2024-03-29T14:18:28;6.22;;;3.80;;